createdAt,value
2019-03-16T00:00:00.516Z,6.67
2019-03-16T00:02:31.216Z,6.77
2019-03-16T00:05:01.843Z,6.77
2019-03-16T00:07:33.367Z,6.68
2019-03-16T00:10:04.031Z,6.68
2019-03-16T00:12:34.550Z,6.66
2019-03-16T00:15:05.465Z,6.72
2019-03-16T00:17:36.026Z,6.82
2019-03-16T00:20:07.280Z,6.85
2019-03-16T00:22:37.829Z,6.85
2019-03-16T00:25:08.776Z,6.80
2019-03-16T00:27:39.380Z,6.72
2019-03-16T00:30:10.132Z,6.74
2019-03-16T00:32:40.918Z,6.74
2019-03-16T00:35:11.656Z,6.68
2019-03-16T00:37:42.294Z,6.68
2019-03-16T00:40:13.159Z,6.55
2019-03-16T00:42:43.655Z,6.47
2019-03-16T00:45:14.433Z,6.51
2019-03-16T00:47:45.049Z,6.44
2019-03-16T00:50:15.638Z,6.44
2019-03-16T00:52:46.326Z,6.39
2019-03-16T00:55:16.851Z,6.36
2019-03-16T00:57:47.321Z,6.35
2019-03-16T01:00:17.940Z,6.40
2019-03-16T01:02:48.432Z,6.42
2019-03-16T01:05:19.002Z,6.45
2019-03-16T01:07:49.466Z,6.44
2019-03-16T01:10:19.870Z,6.38
2019-03-16T01:12:50.390Z,6.42
2019-03-16T01:15:20.774Z,6.46
2019-03-16T01:17:51.239Z,6.61
2019-03-16T01:20:21.746Z,6.55
2019-03-16T01:22:52.170Z,6.42
2019-03-16T01:25:22.541Z,6.34
2019-03-16T01:27:53.075Z,6.39
2019-03-16T01:30:23.468Z,6.33
2019-03-16T01:32:54.015Z,6.40
2019-03-16T01:35:24.467Z,6.35
2019-03-16T01:37:54.847Z,6.26
2019-03-16T01:40:25.226Z,6.26
2019-03-16T01:42:55.843Z,6.33
2019-03-16T01:45:26.297Z,6.26
2019-03-16T01:47:56.976Z,6.29
2019-03-16T01:50:27.555Z,6.25
2019-03-16T01:52:57.970Z,6.12
2019-03-16T01:55:28.375Z,6.18
2019-03-16T01:57:58.845Z,6.14
2019-03-16T02:00:29.353Z,6.01
2019-03-16T02:02:59.826Z,6.15
2019-03-16T02:05:30.347Z,6.22
2019-03-16T02:08:00.912Z,6.31
2019-03-16T02:10:31.461Z,6.19
2019-03-16T02:13:01.855Z,6.08
2019-03-16T02:15:32.216Z,6.17
2019-03-16T02:18:02.871Z,6.15
2019-03-16T02:20:33.405Z,6.20
2019-03-16T02:23:03.975Z,6.22
2019-03-16T06:18:17.199Z,6.15
2019-03-16T06:20:47.648Z,6.11
2019-03-16T06:23:18.491Z,6.11
2019-03-16T06:25:49.433Z,6.08
2019-03-16T06:28:20.251Z,6.02
2019-03-16T06:30:50.950Z,5.95
2019-03-16T06:33:21.364Z,6.01
2019-03-16T06:35:52.122Z,6.11
2019-03-16T06:38:22.568Z,6.14
2019-03-16T06:40:53.130Z,6.25
2019-03-16T06:43:23.632Z,6.75
2019-03-16T06:45:54.037Z,7.64
2019-03-16T06:48:24.616Z,8.05
2019-03-16T06:50:55.030Z,8.60
2019-03-16T06:53:25.521Z,8.71
2019-03-16T06:55:55.987Z,9.02
2019-03-16T06:58:26.384Z,8.92
2019-03-16T07:00:56.990Z,8.91
2019-03-16T07:03:27.654Z,9.08
2019-03-16T07:05:58.864Z,9.37
2019-03-16T07:08:29.480Z,8.73
2019-03-16T07:11:00.373Z,8.65
2019-03-16T07:13:30.782Z,9.42
2019-03-16T07:16:01.802Z,9.05
2019-03-16T07:18:32.230Z,8.68
2019-03-16T07:21:02.691Z,9.36
2019-03-16T07:23:33.467Z,9.34
2019-03-16T07:26:14.116Z,8.49
2019-03-16T07:28:36.382Z,7.81
2019-03-16T07:31:07.035Z,7.68
2019-03-16T07:33:37.515Z,7.83
2019-03-16T07:36:08.339Z,7.66
2019-03-16T07:38:38.977Z,7.50
2019-03-16T07:41:09.802Z,7.42
2019-03-16T07:43:40.321Z,7.63
2019-03-16T07:46:10.974Z,8.18
2019-03-16T07:48:41.660Z,8.22
2019-03-16T07:51:12.317Z,8.05
2019-03-16T07:53:42.679Z,7.79
2019-03-16T07:56:13.454Z,7.66
2019-03-16T07:58:43.970Z,7.64
2019-03-16T08:01:14.641Z,7.88
2019-03-16T08:03:45.145Z,8.16
2019-03-16T08:06:16.076Z,8.97
2019-03-16T08:08:46.774Z,8.14
2019-03-16T08:11:17.255Z,8.80
2019-03-16T08:13:47.834Z,8.66
2019-03-16T08:16:18.621Z,9.81
2019-03-16T08:18:49.505Z,10.00
2019-03-16T08:21:20.085Z,9.99
2019-03-16T08:23:53.682Z,10.26
2019-03-16T08:26:23.703Z,10.43
2019-03-16T08:28:54.443Z,9.87
2019-03-16T08:31:25.253Z,10.28
2019-03-16T08:33:55.601Z,11.04
2019-03-16T08:36:26.184Z,10.80
2019-03-16T08:38:56.584Z,9.99
2019-03-16T08:41:27.100Z,9.55
2019-03-16T08:43:57.811Z,9.48
2019-03-16T08:46:28.501Z,9.57
2019-03-16T08:48:59.047Z,9.60
2019-03-16T08:51:29.520Z,8.98
2019-03-16T08:54:00.115Z,9.73
2019-03-16T08:56:30.599Z,9.85
2019-03-16T08:59:01.204Z,9.29
2019-03-16T09:01:31.793Z,9.01
2019-03-16T09:04:02.352Z,9.84
2019-03-16T09:06:32.991Z,11.10
2019-03-16T09:09:04.817Z,10.28
2019-03-16T09:11:35.326Z,10.12
2019-03-16T09:14:05.941Z,10.28
2019-03-16T09:16:37.052Z,11.07
2019-03-16T09:19:07.452Z,10.87
2019-03-16T09:21:38.141Z,10.00
2019-03-16T09:24:08.770Z,10.32
2019-03-16T09:26:39.146Z,9.76
2019-03-16T09:29:15.026Z,9.90
2019-03-16T09:31:42.146Z,9.72
2019-03-16T09:34:12.561Z,8.81
2019-03-16T09:36:43.066Z,9.35
2019-03-16T09:39:13.730Z,9.96
2019-03-16T09:41:44.268Z,9.87
2019-03-16T09:44:14.748Z,10.62
2019-03-16T09:46:45.265Z,10.62
2019-03-16T09:49:15.815Z,10.45
2019-03-16T09:51:46.420Z,9.67
2019-03-16T09:54:17.026Z,10.06
2019-03-16T09:57:00.261Z,10.06
2019-03-16T09:59:19.700Z,10.21
2019-03-16T10:01:50.154Z,10.28
2019-03-16T10:04:20.643Z,10.50
2019-03-16T10:06:51.212Z,10.90
2019-03-16T10:09:22.063Z,12.02
2019-03-16T10:11:52.465Z,11.09
2019-03-16T10:14:22.986Z,10.33
2019-03-16T10:16:53.917Z,11.21
2019-03-16T10:19:24.391Z,11.38
2019-03-16T10:21:54.906Z,10.36
2019-03-16T10:24:25.417Z,11.20
2019-03-16T10:26:55.846Z,13.29
2019-03-16T10:29:26.297Z,14.45
2019-03-16T10:31:57.180Z,13.26
2019-03-16T10:34:27.742Z,13.27
2019-03-16T10:36:58.276Z,11.25
2019-03-16T10:39:28.866Z,10.64
2019-03-16T10:41:59.440Z,10.12
2019-03-16T10:44:29.906Z,10.38
2019-03-16T10:47:00.544Z,11.33
2019-03-16T10:49:31.145Z,10.88
2019-03-16T10:52:01.676Z,11.09
2019-03-16T10:54:32.155Z,11.54
2019-03-16T10:57:04.416Z,12.33
2019-03-16T10:59:35.315Z,13.78
2019-03-16T11:02:05.982Z,13.45
2019-03-16T11:04:36.412Z,11.97
2019-03-16T11:07:06.967Z,11.62
2019-03-16T11:09:37.532Z,12.58
2019-03-16T11:12:08.255Z,14.29
2019-03-16T11:14:41.068Z,14.21
2019-03-16T11:17:11.258Z,13.59
2019-03-16T11:19:42.741Z,13.09
2019-03-16T11:22:13.226Z,11.65
2019-03-16T11:24:43.778Z,12.37
2019-03-16T11:27:17.040Z,12.39
2019-03-16T11:29:46.470Z,12.30
2019-03-16T11:32:16.926Z,12.80
2019-03-16T11:34:47.356Z,13.42
2019-03-16T11:37:17.849Z,13.85
2019-03-16T11:39:48.318Z,12.95
2019-03-16T11:42:18.871Z,13.69
2019-03-16T11:44:49.366Z,12.50
2019-03-16T11:47:20.545Z,11.01
2019-03-16T11:49:51.031Z,11.20
2019-03-16T11:52:21.853Z,11.85
2019-03-16T11:54:52.232Z,11.99
2019-03-16T11:57:22.879Z,12.25
2019-03-16T11:59:53.360Z,11.75
2019-03-16T12:02:23.804Z,12.62
2019-03-16T12:04:54.391Z,12.53
2019-03-16T12:07:24.914Z,12.29
2019-03-16T12:09:55.470Z,12.01
2019-03-16T12:12:26.097Z,11.93
2019-03-16T12:14:56.634Z,11.38
2019-03-16T12:17:27.056Z,11.53
2019-03-16T12:19:57.603Z,11.53
2019-03-16T12:22:28.479Z,11.24
2019-03-16T12:24:59.058Z,10.67
2019-03-16T12:27:29.706Z,10.71
2019-03-16T12:30:00.379Z,10.92
2019-03-16T12:32:30.956Z,10.77
2019-03-16T12:35:01.392Z,10.97
2019-03-16T12:37:31.841Z,11.01
2019-03-16T12:40:02.296Z,11.07
2019-03-16T12:42:32.690Z,11.00
2019-03-16T12:45:03.238Z,10.95
2019-03-16T12:47:33.743Z,10.77
2019-03-16T12:50:04.742Z,11.23
2019-03-16T12:52:35.198Z,11.17
2019-03-16T12:55:06.632Z,10.97
2019-03-16T12:57:37.350Z,10.71
2019-03-16T13:00:10.447Z,10.65
2019-03-16T13:02:41.002Z,10.71
2019-03-16T13:05:11.848Z,10.65
2019-03-16T13:07:42.341Z,10.89
2019-03-16T13:10:13.651Z,10.92
2019-03-16T13:12:44.284Z,11.06
2019-03-16T13:15:14.930Z,10.78
2019-03-16T13:17:45.491Z,10.36
2019-03-16T13:20:16.102Z,10.36
2019-03-16T13:22:46.600Z,10.38
2019-03-16T13:25:17.477Z,10.37
2019-03-16T13:27:48.322Z,10.51
2019-03-16T13:30:18.959Z,10.51
2019-03-16T13:32:49.819Z,10.75
2019-03-16T13:35:20.522Z,10.98
2019-03-16T13:37:50.990Z,11.14
2019-03-16T13:40:21.630Z,11.06
2019-03-16T13:42:52.121Z,10.93
2019-03-16T13:45:22.726Z,10.89
2019-03-16T13:47:53.276Z,10.93
2019-03-16T13:50:23.834Z,11.06
2019-03-16T13:52:54.994Z,11.16
2019-03-16T13:55:25.476Z,11.25
2019-03-16T13:57:55.955Z,11.27
2019-03-16T14:00:26.912Z,11.00
2019-03-16T14:02:57.639Z,10.98
2019-03-16T14:05:28.451Z,10.89
2019-03-16T14:07:58.962Z,10.98
2019-03-16T14:10:30.022Z,10.90
2019-03-16T14:13:00.694Z,10.66
2019-03-16T14:15:31.322Z,10.51
2019-03-16T14:18:02.065Z,10.40
2019-03-16T14:20:32.533Z,10.27
2019-03-16T14:23:03.488Z,10.32
2019-03-16T14:25:34.409Z,10.11
2019-03-16T14:28:05.000Z,10.05
2019-03-16T14:30:41.773Z,10.15
2019-03-16T14:33:07.756Z,10.07
2019-03-16T14:35:38.308Z,9.91
2019-03-16T14:38:09.447Z,9.67
2019-03-16T14:40:39.821Z,9.46
2019-03-16T14:43:11.558Z,9.32
2019-03-16T14:45:42.217Z,9.39
2019-03-16T14:48:12.819Z,9.30
2019-03-16T14:50:43.166Z,9.19
2019-03-16T14:53:13.556Z,8.95
2019-03-16T14:55:44.121Z,8.97
2019-03-16T14:58:14.770Z,8.92
2019-03-16T15:00:45.214Z,8.85
2019-03-16T15:03:15.808Z,8.81
2019-03-16T15:05:46.687Z,8.66
2019-03-16T15:08:17.171Z,8.64
2019-03-16T15:10:47.690Z,8.64
2019-03-16T15:13:18.218Z,8.65
2019-03-16T15:15:48.810Z,8.58
2019-03-16T15:18:19.352Z,8.55
2019-03-16T15:20:50.556Z,8.37
2019-03-16T15:23:21.043Z,8.26
2019-03-16T15:25:52.905Z,8.16
2019-03-16T15:28:23.614Z,8.11
2019-03-16T15:30:54.019Z,8.07
2019-03-16T15:33:24.511Z,7.98
2019-03-16T15:35:55.319Z,7.96
2019-03-16T15:38:25.888Z,7.88
2019-03-16T15:40:56.332Z,7.89
2019-03-16T15:43:29.655Z,7.80
2019-03-16T15:46:00.278Z,7.74
2019-03-16T15:48:30.758Z,7.71
2019-03-16T15:51:01.243Z,7.64
2019-03-16T15:53:31.826Z,7.61
2019-03-16T15:56:02.394Z,7.54
2019-03-16T15:58:32.979Z,7.51
2019-03-16T16:01:05.191Z,7.43
2019-03-16T16:03:35.913Z,7.46
2019-03-16T16:06:09.985Z,7.37
2019-03-16T16:08:40.509Z,7.30
2019-03-16T16:11:12.162Z,7.25
2019-03-16T16:13:42.809Z,7.17
2019-03-16T16:16:14.302Z,7.06
2019-03-16T16:18:46.076Z,7.01
2019-03-16T16:21:16.597Z,6.93
2019-03-16T16:23:48.260Z,6.86
2019-03-16T16:26:21.021Z,6.81
2019-03-16T16:28:52.822Z,6.79
2019-03-16T16:31:24.485Z,6.68
2019-03-16T16:34:02.779Z,6.60
2019-03-16T16:36:32.706Z,6.59
2019-03-16T16:39:06.198Z,6.55
2019-03-16T16:41:38.734Z,6.51
2019-03-16T16:44:09.545Z,6.43
2019-03-16T16:46:41.386Z,6.40
2019-03-16T16:49:12.102Z,6.32
2019-03-16T16:51:42.775Z,6.31
2019-03-16T16:54:13.486Z,6.33
2019-03-16T16:56:44.466Z,6.30
2019-03-16T16:59:17.101Z,6.24
2019-03-16T17:01:47.731Z,6.27
2019-03-16T17:04:18.252Z,6.24
2019-03-16T17:06:48.858Z,6.14
2019-03-16T17:09:21.532Z,6.10
2019-03-16T17:11:52.107Z,6.11
2019-03-16T17:14:25.000Z,6.14
2019-03-16T17:16:59.029Z,6.11
2019-03-16T17:19:31.667Z,6.12
2019-03-16T17:22:02.109Z,6.06
2019-03-16T17:24:34.235Z,6.06
2019-03-16T17:27:05.038Z,5.83
2019-03-16T17:29:38.744Z,5.94
2019-03-16T17:32:10.525Z,5.97
2019-03-16T17:34:41.433Z,5.66
2019-03-16T17:37:13.071Z,5.55
2019-03-16T17:39:45.066Z,5.53
2019-03-16T17:42:15.871Z,5.60
2019-03-16T17:44:47.545Z,5.73
2019-03-16T17:47:20.347Z,5.61
2019-03-16T17:49:51.106Z,5.62
2019-03-16T17:52:21.607Z,5.52
2019-03-16T17:54:53.299Z,5.49
2019-03-16T17:57:23.892Z,5.47
2019-03-16T18:00:00.424Z,5.49
2019-03-16T18:02:31.376Z,5.49
2019-03-16T18:05:04.251Z,5.49
2019-03-16T18:07:35.515Z,5.49
2019-03-16T18:10:07.096Z,5.49
2019-03-16T18:12:37.776Z,5.48
2019-03-16T18:15:11.986Z,5.47
2019-03-16T18:17:42.506Z,5.46
2019-03-16T18:20:17.077Z,5.47
2019-03-16T18:22:47.016Z,5.45
2019-03-16T18:25:18.880Z,5.46
2019-03-16T18:27:50.143Z,5.45
2019-03-16T18:30:24.926Z,5.47
2019-03-16T18:32:59.038Z,5.46
2019-03-16T18:35:33.911Z,5.46
2019-03-16T18:38:12.691Z,5.44
2019-03-16T18:40:43.641Z,5.48
2019-03-16T18:43:17.578Z,5.47
2019-03-16T18:45:57.232Z,5.46
2019-03-16T18:48:30.525Z,5.45
2019-03-16T18:51:02.500Z,5.44
2019-03-16T18:53:33.279Z,5.42
2019-03-16T18:56:04.997Z,5.42
2019-03-16T18:58:38.277Z,5.42
2019-03-16T19:01:12.493Z,5.47
2019-03-16T19:03:44.341Z,5.49
2019-03-16T19:06:15.339Z,5.50
2019-03-16T19:08:45.981Z,5.46
2019-03-16T19:11:16.631Z,5.47
2019-03-16T19:13:50.379Z,5.47
2019-03-16T19:16:21.198Z,5.44
2019-03-16T19:18:57.780Z,5.44
2019-03-16T19:21:31.890Z,5.46
2019-03-16T19:24:02.406Z,5.41
2019-03-16T19:26:35.516Z,5.42
2019-03-16T19:29:10.470Z,5.43
2019-03-16T19:31:44.168Z,5.40
2019-03-16T19:34:16.788Z,5.40
2019-03-16T19:36:47.379Z,5.45
2019-03-16T19:39:21.499Z,5.39
2019-03-16T19:41:56.179Z,5.43
2019-03-16T19:44:34.001Z,5.42
2019-03-16T19:47:09.840Z,5.42
2019-03-16T19:49:40.648Z,5.41
2019-03-16T19:52:12.340Z,5.40
2019-03-16T19:54:45.204Z,5.42
2019-03-16T19:57:16.524Z,5.42
2019-03-16T19:59:52.662Z,5.40
2019-03-16T20:02:23.514Z,5.43
2019-03-16T20:04:56.237Z,5.43
2019-03-16T20:07:32.394Z,5.44
2019-03-16T20:10:04.469Z,5.44
2019-03-16T20:12:35.145Z,5.48
2019-03-16T20:15:11.161Z,5.48
2019-03-16T20:17:42.004Z,5.47
2019-03-16T20:20:20.027Z,5.50
2019-03-16T20:22:50.869Z,5.51
2019-03-16T20:25:27.018Z,5.53
2019-03-16T20:28:06.740Z,5.56
2019-03-16T20:30:37.336Z,5.56
2019-03-16T20:33:07.831Z,5.60
2019-03-16T20:35:38.423Z,5.62
2019-03-16T20:38:09.006Z,5.63
2019-03-16T20:40:49.799Z,5.66
2019-03-16T20:43:22.711Z,5.66
2019-03-16T20:45:56.409Z,5.68
2019-03-16T20:48:32.547Z,5.71
2019-03-16T20:51:04.342Z,5.70
2019-03-16T20:53:35.955Z,5.71
2019-03-16T20:56:06.565Z,5.70
2019-03-16T20:58:39.546Z,5.80
2019-03-16T21:01:14.996Z,5.79
2019-03-16T21:03:51.079Z,5.78
2019-03-16T21:06:22.593Z,5.76
2019-03-16T21:09:02.662Z,5.80
2019-03-16T21:11:26.253Z,5.78
2019-03-16T21:13:57.886Z,5.82
2019-03-16T21:16:30.900Z,5.85
2019-03-16T21:19:08.395Z,5.88
2019-03-16T21:21:40.072Z,5.86
2019-03-16T21:24:11.979Z,5.90
2019-03-16T21:26:52.268Z,5.95
2019-03-16T21:29:26.227Z,5.98
2019-03-16T21:31:55.576Z,5.98
2019-03-16T21:34:36.617Z,6.01
2019-03-16T21:37:08.495Z,6.01
2019-03-16T21:39:39.092Z,6.01
2019-03-16T21:42:10.022Z,6.03
2019-03-16T21:44:40.486Z,6.05
2019-03-16T21:47:11.052Z,6.05
2019-03-16T21:49:41.677Z,6.06
2019-03-16T21:52:12.460Z,6.08
2019-03-16T21:54:42.879Z,6.08
2019-03-16T21:57:13.489Z,6.15
2019-03-16T21:59:46.469Z,6.13
2019-03-16T22:02:17.079Z,6.14
2019-03-16T22:04:47.651Z,6.17
2019-03-16T22:07:18.172Z,6.18
2019-03-16T22:09:48.637Z,6.23
2019-03-16T22:12:19.058Z,6.26
2019-03-16T22:14:49.651Z,6.29
2019-03-16T22:17:20.138Z,6.34
2019-03-16T22:19:50.758Z,6.39
2019-03-16T22:22:21.347Z,6.46
2019-03-16T22:24:51.740Z,6.50
2019-03-16T22:27:22.241Z,6.54
2019-03-16T22:29:52.739Z,6.57
2019-03-16T22:32:23.592Z,6.53
2019-03-16T22:34:54.264Z,6.55
2019-03-16T22:37:24.756Z,6.58
2019-03-16T22:39:55.193Z,6.59
2019-03-16T22:42:25.652Z,6.55
2019-03-16T22:44:56.043Z,6.59
2019-03-16T22:47:26.599Z,6.58
2019-03-16T22:49:57.101Z,6.58
2019-03-16T22:52:27.682Z,6.65
2019-03-16T22:54:58.231Z,6.68
2019-03-16T22:57:28.869Z,6.73
2019-03-16T22:59:59.300Z,6.78
2019-03-16T23:02:29.830Z,6.81
2019-03-16T23:05:00.412Z,6.87
2019-03-16T23:07:30.789Z,6.90
2019-03-16T23:10:01.352Z,6.93
2019-03-16T23:12:31.846Z,6.96
2019-03-16T23:15:02.429Z,7.02
2019-03-16T23:17:33.073Z,7.04
2019-03-16T23:20:03.660Z,7.06
2019-03-16T23:22:34.138Z,7.07
2019-03-16T23:25:04.852Z,7.09
2019-03-16T23:27:35.337Z,7.10
2019-03-16T23:30:06.399Z,7.14
2019-03-16T23:32:37.016Z,7.06
2019-03-16T23:35:07.890Z,7.09
2019-03-16T23:37:38.319Z,7.08
2019-03-16T23:40:09.144Z,7.10
2019-03-16T23:42:39.658Z,7.11
2019-03-16T23:45:10.775Z,7.06
2019-03-16T23:47:41.371Z,7.10
2019-03-16T23:50:12.132Z,7.09
2019-03-16T23:52:42.787Z,7.11
2019-03-16T23:55:13.506Z,7.12
2019-03-16T23:57:44.008Z,7.11
